createdAt,value
2018-03-25T00:09:55.136Z,79.94
2018-03-25T00:19:52.853Z,81.29
2018-03-25T00:29:50.243Z,82.05
2018-03-25T00:39:46.030Z,82.46
2018-03-25T00:49:43.148Z,82.46
2018-03-25T00:59:40.539Z,82.57
2018-03-25T01:09:37.519Z,82.57
2018-03-25T01:19:35.005Z,82.29
2018-03-25T01:29:29.094Z,81.99
2018-03-25T01:39:24.918Z,82.50
2018-03-25T01:49:20.509Z,83.64
2018-03-25T01:59:17.295Z,82.50
2018-03-25T02:09:11.989Z,83.95
2018-03-25T02:19:07.686Z,84.06
2018-03-25T02:29:06.530Z,84.88
2018-03-25T02:39:03.926Z,84.09
2018-03-25T02:48:58.693Z,84.75
2018-03-25T02:58:56.382Z,86.10
2018-03-25T03:08:54.667Z,86.00
2018-03-25T03:18:49.812Z,85.34
2018-03-25T03:28:46.795Z,86.07
2018-03-25T03:38:42.766Z,85.13
2018-03-25T03:48:39.377Z,86.00
2018-03-25T03:58:34.682Z,86.00
2018-03-25T04:08:31.791Z,86.41
2018-03-25T04:18:28.488Z,85.69
2018-03-25T04:28:23.977Z,86.21
2018-03-25T04:38:20.773Z,86.31
2018-03-25T04:48:17.758Z,86.21
2018-03-25T04:58:13.289Z,87.35
2018-03-25T05:08:10.382Z,86.58
2018-03-25T05:18:07.807Z,86.83
2018-03-25T05:28:01.770Z,86.83
2018-03-25T05:37:52.682Z,86.83
2018-03-25T05:47:49.405Z,87.62
2018-03-25T05:57:47.630Z,86.37
2018-03-25T06:07:45.171Z,86.47
2018-03-25T06:17:41.780Z,86.58
2018-03-25T06:27:36.224Z,87.16
2018-03-25T06:37:32.446Z,86.33
2018-03-25T06:47:30.091Z,86.07
2018-03-25T06:57:23.695Z,86.19
2018-03-25T07:07:21.519Z,85.16
2018-03-25T07:17:19.977Z,86.29
2018-03-25T07:27:11.067Z,85.57
2018-03-25T07:37:04.870Z,84.08
2018-03-25T07:46:59.944Z,83.15
2018-03-25T07:56:56.369Z,82.04
2018-03-25T08:06:47.058Z,81.11
2018-03-25T08:16:44.546Z,83.01
2018-03-25T08:26:40.676Z,82.87
2018-03-25T08:36:31.970Z,83.04
2018-03-25T08:46:29.787Z,81.73
2018-03-25T08:56:26.080Z,81.80
2018-03-25T09:06:21.428Z,82.31
2018-03-25T09:16:17.131Z,81.14
2018-03-25T09:26:12.808Z,80.90
2018-03-25T09:36:05.448Z,81.04
2018-03-25T09:45:58.079Z,81.14
2018-03-25T09:55:52.020Z,81.66
2018-03-25T10:05:47.206Z,80.38
2018-03-25T10:15:40.588Z,79.21
2018-03-25T10:25:35.932Z,78.34
2018-03-25T10:35:30.220Z,77.48
2018-03-25T10:45:27.774Z,77.86
2018-03-25T10:55:24.389Z,76.35
2018-03-25T11:05:20.349Z,75.39
2018-03-25T11:15:16.559Z,74.12
2018-03-25T11:25:14.681Z,75.70
2018-03-25T11:35:11.591Z,74.95
2018-03-25T11:45:09.405Z,73.09
2018-03-25T11:55:06.399Z,70.45
2018-03-25T12:05:01.181Z,68.67
2018-03-25T12:14:57.467Z,69.02
2018-03-25T12:24:47.016Z,70.46
2018-03-25T12:34:39.728Z,67.10
2018-03-25T12:44:35.352Z,67.48
2018-03-25T12:54:31.721Z,68.60
2018-03-25T13:04:27.391Z,65.56
2018-03-25T13:14:24.536Z,64.87
2018-03-25T13:24:21.101Z,68.08
2018-03-25T13:34:16.772Z,66.82
2018-03-25T13:44:14.251Z,65.62
2018-03-25T13:54:12.475Z,66.64
2018-03-25T14:04:08.736Z,66.85
2018-03-25T14:14:02.251Z,66.54
2018-03-25T14:23:58.953Z,67.57
2018-03-25T14:33:51.352Z,67.68
2018-03-25T14:43:48.044Z,70.21
2018-03-25T14:53:44.761Z,69.04
2018-03-25T15:03:39.095Z,68.43
2018-03-25T15:13:35.676Z,68.84
2018-03-25T15:23:32.027Z,70.72
2018-03-25T15:33:27.465Z,71.20
2018-03-25T15:43:21.661Z,71.34
2018-03-25T15:53:17.504Z,71.37
2018-03-25T16:03:12.495Z,71.89
2018-03-25T16:13:08.652Z,72.41
2018-03-25T16:23:06.412Z,73.13
2018-03-25T16:33:02.669Z,73.33
2018-03-25T16:42:59.800Z,74.19
2018-03-25T16:52:57.693Z,73.98
2018-03-25T17:02:50.438Z,73.68
2018-03-25T17:12:45.206Z,73.47
2018-03-25T17:22:42.038Z,75.56
2018-03-25T17:32:39.620Z,74.43
2018-03-25T17:42:35.743Z,74.22
2018-03-25T17:52:33.463Z,76.49
2018-03-25T18:02:30.969Z,75.56
2018-03-25T18:12:28.285Z,74.84
2018-03-25T18:22:22.092Z,74.74
2018-03-25T18:32:19.655Z,76.12
2018-03-25T18:42:17.555Z,75.49
2018-03-25T18:52:15.325Z,77.66
2018-03-25T19:02:08.244Z,75.12
2018-03-25T19:12:01.607Z,76.21
2018-03-25T19:21:57.895Z,76.94
2018-03-25T19:31:55.268Z,77.08
2018-03-25T19:41:51.218Z,77.59
2018-03-25T19:51:45.824Z,77.59
2018-03-25T20:01:39.855Z,79.49
2018-03-25T20:11:32.244Z,79.38
2018-03-25T20:21:27.590Z,79.18
2018-03-25T20:31:21.622Z,79.52
2018-03-25T20:41:19.808Z,81.07
2018-03-25T20:51:16.773Z,77.46
2018-03-25T21:01:10.947Z,78.08
2018-03-25T21:11:09.977Z,75.87
2018-03-25T21:21:03.217Z,79.83
2018-03-25T21:30:56.357Z,77.36
2018-03-25T21:40:53.709Z,77.46
2018-03-25T21:50:50.706Z,80.87
2018-03-25T22:00:48.887Z,79.94
2018-03-25T22:10:47.130Z,79.73
2018-03-25T22:20:43.457Z,79.11
2018-03-25T22:30:40.880Z,79.52
2018-03-25T22:40:39.309Z,80.39
2018-03-25T22:50:34.983Z,82.45
2018-03-25T23:00:32.370Z,81.32
2018-03-25T23:10:30.601Z,82.04
2018-03-25T23:20:27.809Z,79.77
2018-03-25T23:30:23.501Z,80.49
2018-03-25T23:40:18.667Z,82.50
2018-03-25T23:50:16.420Z,80.32
